Time;durP1;ratioP1;P1;durP2;ratioP2;P2;SDS_P1;SDS_P2;PMS_P1;PMS_P2;Temp;Humidity;BMP_temperature;BMP_pressure;BME280_temperature;BME280_humidity;BME280_pressure;Samples;Min_cycle;Max_cycle;Signal;HPM_P1;HPM_P2
2023/04/08 00:02:07;;;;;;;2.08;0.52;;;;;;;;;;4976783;28;20054;-61
2023/04/08 00:04:34;;;;;;;1.55;0.40;;;;;;;;;;4976573;28;20177;-59
2023/04/08 00:07:01;;;;;;;3.33;0.60;;;;;;;;;;4975607;28;20054;-60
2023/04/08 00:09:27;;;;;;;2.22;0.43;;;;;;;;;;4973491;28;20089;-62
2023/04/08 00:11:55;;;;;;;2.88;0.50;;;;;;;;;;4974583;28;20060;-60
2023/04/08 00:14:22;;;;;;;4.45;0.88;;;;;;;;;;4975005;28;20492;-62
2023/04/08 00:16:49;;;;;;;1.42;0.40;;;;;;;;;;4974338;28;20141;-60
2023/04/08 00:19:15;;;;;;;0.85;0.30;;;;;;;;;;4976185;28;20046;-62
2023/04/08 00:21:42;;;;;;;1.63;0.47;;;;;;;;;;4975729;28;20042;-62
2023/04/08 00:24:09;;;;;;;2.28;0.40;;;;;;;;;;4976081;28;20046;-62
2023/04/08 00:26:36;;;;;;;1.90;0.38;;;;;;;;;;4973615;28;20046;-63
2023/04/08 00:29:03;;;;;;;1.63;0.40;;;;;;;;;;4975092;28;20114;-60
2023/04/08 00:31:29;;;;;;;2.28;0.50;;;;;;;;;;4974473;28;20046;-60
2023/04/08 00:33:56;;;;;;;1.35;0.40;;;;;;;;;;4976209;28;20054;-60
2023/04/08 00:36:23;;;;;;;4.70;0.40;;;;;;;;;;4973745;28;20096;-60
2023/04/08 00:38:49;;;;;;;1.75;0.50;;;;;;;;;;4988226;28;20045;-63
2023/04/08 00:41:16;;;;;;;1.83;0.50;;;;;;;;;;4975132;28;20116;-64
2023/04/08 00:43:43;;;;;;;1.35;0.50;;;;;;;;;;4975820;28;20378;-64
2023/04/08 00:46:10;;;;;;;2.17;0.57;;;;;;;;;;4979862;28;20829;-63
2023/04/08 00:48:36;;;;;;;2.30;0.60;;;;;;;;;;4979523;28;20053;-65
2023/04/08 00:51:03;;;;;;;4.22;0.60;;;;;;;;;;4979699;28;20039;-59
2023/04/08 00:53:31;;;;;;;2.92;0.50;;;;;;;;;;4978483;28;20061;-58
2023/04/08 00:56:00;;;;;;;0.85;0.30;;;;;;;;;;4978350;28;20116;-60
2023/04/08 00:58:27;;;;;;;5.28;0.80;;;;;;;;;;4992976;28;20041;-58
2023/04/08 01:00:58;;;;;;;3.15;0.47;;;;;;;;;;4981250;28;20047;-61
2023/04/08 01:03:42;;;;;;;3.53;0.60;;;;;;;;;;4978472;28;20037;-58
2023/04/08 01:06:09;;;;;;;2.78;0.60;;;;;;;;;;4980449;28;20229;-60
2023/04/08 01:08:37;;;;;;;4.50;0.80;;;;;;;;;;4979570;28;20033;-59
2023/04/08 01:11:05;;;;;;;2.15;0.47;;;;;;;;;;4979047;28;20201;-62
2023/04/08 01:13:35;;;;;;;1.13;0.40;;;;;;;;;;4978296;28;20045;-64
2023/04/08 01:16:02;;;;;;;3.20;0.60;;;;;;;;;;4978028;28;20096;-62
2023/04/08 01:18:29;;;;;;;3.03;0.60;;;;;;;;;;4978791;28;20034;-64
2023/04/08 01:20:56;;;;;;;2.72;0.60;;;;;;;;;;4978632;28;20146;-63
2023/04/08 01:23:28;;;;;;;4.75;0.77;;;;;;;;;;4975701;28;20101;-64
2023/04/08 01:25:56;;;;;;;4.88;0.80;;;;;;;;;;4976171;28;20082;-64
2023/04/08 01:28:24;;;;;;;4.32;0.90;;;;;;;;;;4991519;28;20042;-64
2023/04/08 01:30:51;;;;;;;4.18;0.70;;;;;;;;;;4988451;28;20054;-64
2023/04/08 01:33:19;;;;;;;4.68;0.80;;;;;;;;;;4978654;28;20051;-64
2023/04/08 01:35:46;;;;;;;8.60;0.88;;;;;;;;;;4976859;28;20120;-65
2023/04/08 01:38:15;;;;;;;3.42;0.73;;;;;;;;;;4977311;28;20662;-63
2023/04/08 01:40:42;;;;;;;6.30;0.70;;;;;;;;;;4977401;28;20134;-63
2023/04/08 01:43:10;;;;;;;5.65;0.88;;;;;;;;;;4992817;28;20084;-63
2023/04/08 01:45:37;;;;;;;3.58;0.60;;;;;;;;;;4977582;28;20068;-66
2023/04/08 01:48:04;;;;;;;6.22;1.00;;;;;;;;;;4976611;28;20049;-64
2023/04/08 01:50:31;;;;;;;5.35;0.98;;;;;;;;;;4976909;28;20053;-63
2023/04/08 01:52:59;;;;;;;2.28;0.63;;;;;;;;;;4975567;28;20045;-64
2023/04/08 01:55:26;;;;;;;3.17;0.80;;;;;;;;;;4973890;28;20583;-64
2023/04/08 01:57:54;;;;;;;1.33;0.50;;;;;;;;;;4974905;28;20096;-62
2023/04/08 02:00:26;;;;;;;2.17;0.60;;;;;;;;;;4976204;28;20045;-63
2023/04/08 02:02:53;;;;;;;6.45;0.85;;;;;;;;;;4977569;28;20030;-61
2023/04/08 02:05:20;;;;;;;2.63;0.60;;;;;;;;;;4986242;28;20491;-62
2023/04/08 02:07:50;;;;;;;2.33;0.70;;;;;;;;;;4974304;28;20054;-60
2023/04/08 02:10:17;;;;;;;7.53;1.30;;;;;;;;;;4975723;28;20049;-59
2023/04/08 02:12:44;;;;;;;3.85;0.90;;;;;;;;;;4975597;28;20034;-59
2023/04/08 02:15:11;;;;;;;6.63;1.20;;;;;;;;;;4969524;28;20510;-59
2023/04/08 02:17:46;;;;;;;4.20;1.00;;;;;;;;;;4973818;28;20053;-56
2023/04/08 02:20:17;;;;;;;10.55;1.20;;;;;;;;;;4974401;28;20050;-58
2023/04/08 02:22:44;;;;;;;3.15;1.00;;;;;;;;;;4990321;28;20040;-62
2023/04/08 02:25:16;;;;;;;5.93;1.25;;;;;;;;;;4976461;28;20043;-60
2023/04/08 02:27:44;;;;;;;9.18;2.10;;;;;;;;;;4966164;28;20054;-59
2023/04/08 02:30:11;;;;;;;7.93;1.98;;;;;;;;;;4977235;28;20034;-62
2023/04/08 02:32:38;;;;;;;6.00;1.15;;;;;;;;;;4975851;28;20041;-65
2023/04/08 02:35:05;;;;;;;5.32;1.17;;;;;;;;;;4976733;28;21022;-63
2023/04/08 02:37:32;;;;;;;7.32;1.50;;;;;;;;;;4971055;28;20051;-60
2023/04/08 02:39:59;;;;;;;11.85;1.40;;;;;;;;;;4987969;28;20052;-62
2023/04/08 02:42:26;;;;;;;6.47;1.40;;;;;;;;;;4978118;28;20046;-62
2023/04/08 02:44:52;;;;;;;12.48;1.75;;;;;;;;;;4978425;28;20144;-61
2023/04/08 02:47:19;;;;;;;5.53;1.10;;;;;;;;;;4966422;28;20038;-62
2023/04/08 02:49:46;;;;;;;4.35;1.40;;;;;;;;;;4963076;28;20081;-63
2023/04/08 02:52:12;;;;;;;5.55;1.25;;;;;;;;;;4968760;28;20435;-63
2023/04/08 02:54:39;;;;;;;8.13;1.88;;;;;;;;;;4976073;28;20105;-63
2023/04/08 02:57:06;;;;;;;6.93;1.30;;;;;;;;;;4974209;28;20062;-63
2023/04/08 02:59:32;;;;;;;6.03;1.17;;;;;;;;;;4976181;28;20046;-60
2023/04/08 03:01:59;;;;;;;13.50;1.55;;;;;;;;;;4977201;28;20034;-62
2023/04/08 03:04:26;;;;;;;10.63;1.70;;;;;;;;;;4974270;28;20468;-61
2023/04/08 03:06:52;;;;;;;9.90;1.42;;;;;;;;;;4976305;28;20054;-62
2023/04/08 03:09:19;;;;;;;7.43;1.40;;;;;;;;;;4990734;28;20120;-64
2023/04/08 03:11:51;;;;;;;5.35;1.13;;;;;;;;;;4977300;28;20042;-64
2023/04/08 03:14:18;;;;;;;3.92;1.20;;;;;;;;;;4977769;28;20038;-64
2023/04/08 03:16:44;;;;;;;4.50;1.02;;;;;;;;;;4978393;28;20034;-66
2023/04/08 03:19:11;;;;;;;7.10;1.25;;;;;;;;;;4976429;28;20026;-64
2023/04/08 03:21:37;;;;;;;10.45;1.23;;;;;;;;;;4978684;28;20034;-65
2023/04/08 03:24:24;;;;;;;5.13;1.30;;;;;;;;;;5010815;28;20088;-61
2023/04/08 03:26:50;;;;;;;7.05;1.63;;;;;;;;;;5010019;28;20129;-60
2023/04/08 03:29:17;;;;;;;6.35;1.25;;;;;;;;;;5010431;28;20087;-63
2023/04/08 03:31:44;;;;;;;13.30;1.60;;;;;;;;;;5011699;28;20042;-62
2023/04/08 03:34:11;;;;;;;9.82;1.65;;;;;;;;;;5011566;28;20046;-62
2023/04/08 03:36:37;;;;;;;10.30;2.50;;;;;;;;;;5010806;28;21035;-63
2023/04/08 03:39:04;;;;;;;6.53;2.28;;;;;;;;;;4991551;28;20396;-59
2023/04/08 03:41:31;;;;;;;5.40;1.70;;;;;;;;;;4994105;28;20127;-60
2023/04/08 03:43:58;;;;;;;5.22;1.73;;;;;;;;;;5011681;28;20073;-64
2023/04/08 03:46:24;;;;;;;8.70;1.73;;;;;;;;;;5008916;28;20042;-60
2023/04/08 03:48:51;;;;;;;5.35;1.38;;;;;;;;;;5010574;28;20063;-63
2023/04/08 03:51:17;;;;;;;5.05;0.93;;;;;;;;;;5008899;28;20133;-63
2023/04/08 03:53:47;;;;;;;7.57;1.10;;;;;;;;;;5009432;28;20046;-61
2023/04/08 03:56:13;;;;;;;4.82;1.17;;;;;;;;;;4994596;28;20041;-62
2023/04/08 03:58:40;;;;;;;3.83;1.05;;;;;;;;;;5010691;28;20060;-63
2023/04/08 04:01:07;;;;;;;6.47;1.30;;;;;;;;;;4987710;28;20042;-63
2023/04/08 04:03:33;;;;;;;5.13;1.45;;;;;;;;;;4975559;28;20046;-62
2023/04/08 04:06:00;;;;;;;7.90;1.80;;;;;;;;;;4972755;28;20049;-63
2023/04/08 04:08:27;;;;;;;4.90;1.75;;;;;;;;;;4974601;28;20070;-65
2023/04/08 04:10:53;;;;;;;10.20;2.15;;;;;;;;;;4972928;28;20057;-63
2023/04/08 04:13:20;;;;;;;5.93;2.05;;;;;;;;;;4989103;28;20038;-63
2023/04/08 04:15:47;;;;;;;7.88;2.25;;;;;;;;;;4975495;28;20337;-62
2023/04/08 04:18:14;;;;;;;7.32;1.60;;;;;;;;;;4972824;28;20034;-63
2023/04/08 04:20:43;;;;;;;8.00;1.17;;;;;;;;;;4976942;28;20180;-61
2023/04/08 04:23:10;;;;;;;3.25;1.00;;;;;;;;;;4979663;28;21419;-62
2023/04/08 04:25:38;;;;;;;5.15;1.10;;;;;;;;;;4977537;28;20046;-60
2023/04/08 04:28:05;;;;;;;14.95;1.55;;;;;;;;;;4981551;28;20113;-61
2023/04/08 04:30:31;;;;;;;8.63;1.23;;;;;;;;;;4972212;28;20042;-61
2023/04/08 04:32:58;;;;;;;5.63;1.08;;;;;;;;;;4982390;28;20038;-61
2023/04/08 04:35:24;;;;;;;3.97;1.00;;;;;;;;;;4980132;28;20042;-65
2023/04/08 04:37:51;;;;;;;5.13;1.20;;;;;;;;;;4975277;28;20026;-60
2023/04/08 04:40:18;;;;;;;5.72;1.25;;;;;;;;;;4981605;28;20392;-62
2023/04/08 04:42:44;;;;;;;6.25;1.20;;;;;;;;;;4981379;28;20046;-66
2023/04/08 04:45:11;;;;;;;13.50;1.30;;;;;;;;;;4985677;28;20064;-64
2023/04/08 04:47:57;;;;;;;6.28;1.08;;;;;;;;;;4994238;28;20993;-66
2023/04/08 04:50:24;;;;;;;3.05;0.90;;;;;;;;;;4994785;28;20037;-61
2023/04/08 04:52:51;;;;;;;4.25;1.27;;;;;;;;;;4994323;28;20589;-60
2023/04/08 04:55:17;;;;;;;2.97;1.10;;;;;;;;;;4994767;28;20034;-63
2023/04/08 04:57:44;;;;;;;3.42;1.10;;;;;;;;;;4996028;28;20123;-62
2023/04/08 05:00:11;;;;;;;6.63;1.40;;;;;;;;;;4977169;28;20125;-61
2023/04/08 05:02:38;;;;;;;5.82;1.33;;;;;;;;;;4993250;28;20042;-64
2023/04/08 05:05:04;;;;;;;3.25;1.08;;;;;;;;;;4996114;28;20053;-62
2023/04/08 05:07:31;;;;;;;7.45;1.08;;;;;;;;;;4992472;28;20058;-64
2023/04/08 05:09:58;;;;;;;12.18;1.38;;;;;;;;;;4978067;28;20038;-67
2023/04/08 05:12:24;;;;;;;6.07;1.10;;;;;;;;;;4997406;28;20172;-63
2023/04/08 05:14:51;;;;;;;3.38;1.00;;;;;;;;;;4997665;28;20029;-63
2023/04/08 05:17:17;;;;;;;3.03;0.90;;;;;;;;;;4996266;28;20101;-63
2023/04/08 05:19:44;;;;;;;3.72;0.88;;;;;;;;;;4993251;28;20060;-62
2023/04/08 05:22:11;;;;;;;5.18;0.93;;;;;;;;;;4994784;28;20054;-65
2023/04/08 05:24:37;;;;;;;4.65;1.00;;;;;;;;;;4991433;28;21089;-64
2023/04/08 05:27:04;;;;;;;6.63;1.00;;;;;;;;;;4978900;28;20050;-64
2023/04/08 05:29:31;;;;;;;2.58;0.60;;;;;;;;;;4972459;28;20068;-64
2023/04/08 05:31:59;;;;;;;6.05;1.02;;;;;;;;;;4994554;28;20038;-64
2023/04/08 05:34:26;;;;;;;3.20;0.88;;;;;;;;;;4979267;28;20038;-65
2023/04/08 05:36:52;;;;;;;2.80;0.95;;;;;;;;;;4979853;28;20039;-64
2023/04/08 05:39:19;;;;;;;4.97;1.08;;;;;;;;;;4975852;28;20185;-64
2023/04/08 05:41:46;;;;;;;2.72;0.82;;;;;;;;;;4978315;28;20049;-64
2023/04/08 05:44:13;;;;;;;4.07;0.90;;;;;;;;;;4979385;28;20061;-64
2023/04/08 05:46:40;;;;;;;2.90;0.85;;;;;;;;;;4994930;28;20125;-63
2023/04/08 05:49:06;;;;;;;3.00;0.85;;;;;;;;;;4979867;28;20104;-62
2023/04/08 05:51:33;;;;;;;7.25;1.13;;;;;;;;;;4979013;28;20088;-63
2023/04/08 05:54:00;;;;;;;3.13;1.00;;;;;;;;;;4979497;28;20042;-63
2023/04/08 05:56:26;;;;;;;4.53;0.90;;;;;;;;;;4978245;28;20883;-64
2023/04/08 05:58:53;;;;;;;3.05;0.82;;;;;;;;;;4979588;28;20084;-64
2023/04/08 06:01:20;;;;;;;1.83;0.60;;;;;;;;;;4978236;28;20282;-64
2023/04/08 06:03:46;;;;;;;2.50;0.60;;;;;;;;;;4979297;28;20431;-63
2023/04/08 06:06:13;;;;;;;1.67;0.50;;;;;;;;;;4977323;28;20052;-64
2023/04/08 06:08:40;;;;;;;2.15;0.70;;;;;;;;;;4978001;28;20527;-63
2023/04/08 06:11:07;;;;;;;2.65;0.68;;;;;;;;;;4977547;28;20521;-64
2023/04/08 06:13:34;;;;;;;1.83;0.55;;;;;;;;;;4978714;28;20137;-63
2023/04/08 06:16:10;;;;;;;2.25;0.70;;;;;;;;;;4980273;28;20038;-63
2023/04/08 06:18:36;;;;;;;3.60;0.70;;;;;;;;;;4981497;28;20030;-63
2023/04/08 06:21:03;;;;;;;2.72;0.65;;;;;;;;;;4983640;28;20129;-64
2023/04/08 06:23:30;;;;;;;2.00;0.57;;;;;;;;;;4999716;28;20074;-63
2023/04/08 06:25:57;;;;;;;3.17;0.75;;;;;;;;;;4981670;28;20035;-65
2023/04/08 06:28:24;;;;;;;2.22;0.57;;;;;;;;;;4980318;28;20046;-64
2023/04/08 06:30:50;;;;;;;2.30;0.50;;;;;;;;;;4979077;28;20113;-64
2023/04/08 06:33:17;;;;;;;3.00;0.70;;;;;;;;;;4980802;28;20861;-64
2023/04/08 06:35:44;;;;;;;2.75;0.50;;;;;;;;;;4979587;28;20046;-61
2023/04/08 06:38:10;;;;;;;2.25;0.60;;;;;;;;;;4981002;28;20069;-65
2023/04/08 06:40:38;;;;;;;1.90;0.60;;;;;;;;;;4980180;28;20122;-64
2023/04/08 06:43:08;;;;;;;3.35;0.65;;;;;;;;;;4980164;28;20062;-64
2023/04/08 06:45:34;;;;;;;2.20;0.60;;;;;;;;;;4979455;28;20120;-64
2023/04/08 06:48:01;;;;;;;2.22;0.52;;;;;;;;;;4979747;28;20046;-64
2023/04/08 06:50:28;;;;;;;1.77;0.50;;;;;;;;;;4980651;28;20038;-63
2023/04/08 06:52:54;;;;;;;5.00;0.63;;;;;;;;;;4981666;28;20125;-64
2023/04/08 06:55:21;;;;;;;3.67;0.82;;;;;;;;;;4980170;28;20081;-65
2023/04/08 06:57:47;;;;;;;2.60;0.70;;;;;;;;;;4979912;28;20042;-65
2023/04/08 07:00:14;;;;;;;1.65;0.50;;;;;;;;;;4979508;28;20664;-64
2023/04/08 07:02:41;;;;;;;1.48;0.50;;;;;;;;;;4979100;28;20137;-62
2023/04/08 07:05:07;;;;;;;2.53;0.73;;;;;;;;;;4978501;28;20329;-63
2023/04/08 07:07:35;;;;;;;4.25;0.70;;;;;;;;;;4977893;28;20057;-64
2023/04/08 07:10:01;;;;;;;2.00;0.55;;;;;;;;;;4979212;28;20053;-63
2023/04/08 07:12:28;;;;;;;5.25;0.57;;;;;;;;;;4978599;28;20043;-62
2023/04/08 07:14:55;;;;;;;1.77;0.50;;;;;;;;;;4978959;28;20043;-63
2023/04/08 07:17:21;;;;;;;1.58;0.45;;;;;;;;;;4978282;28;20038;-62
2023/04/08 07:19:48;;;;;;;1.33;0.50;;;;;;;;;;4978564;28;20042;-61
2023/04/08 07:22:15;;;;;;;1.30;0.40;;;;;;;;;;4977433;28;20132;-62
2023/04/08 07:24:44;;;;;;;2.10;0.50;;;;;;;;;;4977493;28;20046;-62
2023/04/08 07:27:11;;;;;;;2.78;0.70;;;;;;;;;;4977889;28;21832;-63
2023/04/08 07:29:37;;;;;;;1.90;0.55;;;;;;;;;;4978260;28;20109;-62
2023/04/08 07:32:04;;;;;;;1.80;0.52;;;;;;;;;;4977087;28;20035;-63
2023/04/08 07:34:31;;;;;;;1.48;0.50;;;;;;;;;;4976677;28;21006;-63
2023/04/08 07:36:57;;;;;;;2.53;0.50;;;;;;;;;;4976211;28;20050;-63
2023/04/08 07:39:24;;;;;;;3.10;0.60;;;;;;;;;;4976759;28;20407;-61
2023/04/08 07:41:50;;;;;;;2.78;0.50;;;;;;;;;;4976583;28;20042;-63
2023/04/08 07:44:18;;;;;;;5.78;0.77;;;;;;;;;;4976946;28;20049;-62
2023/04/08 07:46:49;;;;;;;2.08;0.60;;;;;;;;;;4973829;28;20065;-62
2023/04/08 07:49:16;;;;;;;1.70;0.43;;;;;;;;;;4975859;28;20043;-62
2023/04/08 07:51:42;;;;;;;2.40;0.52;;;;;;;;;;4975938;28;20074;-61
2023/04/08 07:54:11;;;;;;;1.40;0.50;;;;;;;;;;4979294;28;20050;-64
2023/04/08 07:56:39;;;;;;;1.98;0.60;;;;;;;;;;4976477;28;21616;-63
2023/04/08 07:59:08;;;;;;;2.85;0.52;;;;;;;;;;4980842;28;20563;-62
2023/04/08 08:01:35;;;;;;;1.48;0.40;;;;;;;;;;4979816;28;20041;-62
2023/04/08 08:04:02;;;;;;;1.52;0.50;;;;;;;;;;4979417;28;20039;-62
2023/04/08 08:06:28;;;;;;;1.38;0.45;;;;;;;;;;4980746;28;20054;-62
2023/04/08 08:08:55;;;;;;;1.92;0.60;;;;;;;;;;4980200;28;20038;-63
2023/04/08 08:11:22;;;;;;;1.95;0.55;;;;;;;;;;4979645;28;20045;-62
2023/04/08 08:13:48;;;;;;;2.10;0.60;;;;;;;;;;4981465;28;20045;-63
2023/04/08 08:16:15;;;;;;;1.02;0.40;;;;;;;;;;4981446;28;20802;-61
2023/04/08 08:18:42;;;;;;;1.83;0.50;;;;;;;;;;4978800;28;20042;-61
2023/04/08 08:21:08;;;;;;;1.17;0.60;;;;;;;;;;4981031;28;20053;-61
2023/04/08 08:23:36;;;;;;;1.60;0.40;;;;;;;;;;4979664;28;20046;-62
2023/04/08 08:26:08;;;;;;;1.67;0.50;;;;;;;;;;4979157;28;20096;-63
2023/04/08 08:28:35;;;;;;;3.80;0.60;;;;;;;;;;4981123;28;20050;-61
2023/04/08 08:31:02;;;;;;;2.50;0.45;;;;;;;;;;4980470;28;20084;-61
2023/04/08 08:33:29;;;;;;;2.50;0.50;;;;;;;;;;4979273;28;20100;-63
2023/04/08 08:35:56;;;;;;;4.07;0.57;;;;;;;;;;4979380;28;20377;-62
2023/04/08 08:38:23;;;;;;;1.20;0.50;;;;;;;;;;4980136;28;20822;-63
2023/04/08 08:40:56;;;;;;;2.30;0.65;;;;;;;;;;4980345;28;20034;-62
2023/04/08 08:43:24;;;;;;;1.10;0.40;;;;;;;;;;4979096;28;20062;-62
2023/04/08 08:45:50;;;;;;;1.48;0.50;;;;;;;;;;4980444;28;20118;-61
2023/04/08 08:48:17;;;;;;;1.42;0.45;;;;;;;;;;4979831;28;20570;-62
2023/04/08 08:50:43;;;;;;;2.30;0.50;;;;;;;;;;4980189;28;20038;-63
2023/04/08 08:53:10;;;;;;;2.47;0.50;;;;;;;;;;4978987;28;20050;-61
2023/04/08 08:55:40;;;;;;;1.67;0.50;;;;;;;;;;4977324;28;20042;-61
2023/04/08 08:58:06;;;;;;;2.70;0.50;;;;;;;;;;4978364;28;20042;-63
2023/04/08 09:00:34;;;;;;;1.95;0.55;;;;;;;;;;4979584;28;20137;-62
2023/04/08 09:03:20;;;;;;;3.35;0.57;;;;;;;;;;4979254;28;20515;-62
2023/04/08 09:05:48;;;;;;;2.97;0.50;;;;;;;;;;4976844;28;20046;-63
2023/04/08 09:08:31;;;;;;;1.50;0.50;;;;;;;;;;4978389;28;20149;-61
2023/04/08 09:11:17;;;;;;;2.00;0.50;;;;;;;;;;4978622;28;20046;-63
2023/04/08 09:13:45;;;;;;;2.08;0.40;;;;;;;;;;4977814;28;20045;-61
2023/04/08 09:16:13;;;;;;;0.80;0.40;;;;;;;;;;4979173;28;20626;-60
2023/04/08 09:18:44;;;;;;;1.42;0.45;;;;;;;;;;4978092;28;20125;-63
2023/04/08 09:21:12;;;;;;;2.78;0.60;;;;;;;;;;4980273;28;20042;-61
2023/04/08 09:23:41;;;;;;;4.72;0.50;;;;;;;;;;4979463;28;20050;-61
2023/04/08 09:26:11;;;;;;;1.17;0.43;;;;;;;;;;4978211;28;20078;-61
2023/04/08 09:28:38;;;;;;;2.10;0.60;;;;;;;;;;4978682;28;20074;-63
2023/04/08 09:31:22;;;;;;;2.25;0.50;;;;;;;;;;4989009;28;20038;-62
2023/04/08 09:33:53;;;;;;;2.50;0.60;;;;;;;;;;4976914;28;20435;-63
2023/04/08 09:36:20;;;;;;;2.55;0.70;;;;;;;;;;4969945;28;20129;-63
2023/04/08 09:38:47;;;;;;;1.45;0.60;;;;;;;;;;4979446;28;20050;-62
2023/04/08 09:41:19;;;;;;;1.67;0.55;;;;;;;;;;4978983;28;20038;-63
2023/04/08 09:43:53;;;;;;;1.40;0.50;;;;;;;;;;4977551;28;20528;-62
2023/04/08 09:46:33;;;;;;;2.75;0.50;;;;;;;;;;4977790;28;20070;-62
2023/04/08 09:48:59;;;;;;;2.40;0.45;;;;;;;;;;4988930;28;20581;-64
2023/04/08 09:51:28;;;;;;;2.33;0.50;;;;;;;;;;4977962;28;20042;-62
2023/04/08 09:54:01;;;;;;;1.75;0.50;;;;;;;;;;4978405;28;20069;-62
2023/04/08 09:56:30;;;;;;;1.70;0.50;;;;;;;;;;4978185;28;20054;-62
2023/04/08 09:59:03;;;;;;;2.22;0.65;;;;;;;;;;4978553;28;20039;-62
2023/04/08 10:01:37;;;;;;;1.33;0.43;;;;;;;;;;4977824;28;20169;-63
2023/04/08 10:04:05;;;;;;;3.35;0.60;;;;;;;;;;4974359;28;20184;-64
2023/04/08 10:06:32;;;;;;;2.67;0.55;;;;;;;;;;4977131;28;20046;-64
2023/04/08 10:09:00;;;;;;;1.55;0.50;;;;;;;;;;4975075;28;20048;-62
2023/04/08 10:11:27;;;;;;;1.05;0.45;;;;;;;;;;4976918;28;20042;-62
2023/04/08 10:13:54;;;;;;;2.10;0.52;;;;;;;;;;4979133;28;20093;-63
2023/04/08 10:16:23;;;;;;;1.58;0.50;;;;;;;;;;4977413;28;20153;-63
2023/04/08 10:18:54;;;;;;;2.90;0.50;;;;;;;;;;4978042;28;20046;-64
2023/04/08 10:21:46;;;;;;;2.42;0.65;;;;;;;;;;4977184;28;20507;-64
2023/04/08 10:24:13;;;;;;;1.58;0.57;;;;;;;;;;4978314;28;20053;-66
2023/04/08 10:26:41;;;;;;;1.02;0.40;;;;;;;;;;4970855;28;20140;-62
2023/04/08 10:29:27;;;;;;;2.47;0.55;;;;;;;;;;4960340;28;20046;-63
2023/04/08 10:31:56;;;;;;;1.80;0.52;;;;;;;;;;4962743;28;20074;-63
2023/04/08 10:34:25;;;;;;;0.82;0.40;;;;;;;;;;4960662;28;20080;-64
2023/04/08 10:37:10;;;;;;;2.03;0.60;;;;;;;;;;4922247;29;20105;-66
2023/04/08 10:39:36;;;;;;;1.63;0.50;;;;;;;;;;4923383;29;20054;-61
2023/04/08 10:42:03;;;;;;;3.30;0.60;;;;;;;;;;4922786;29;20054;-61
2023/04/08 10:44:30;;;;;;;3.40;0.60;;;;;;;;;;4920812;29;20135;-63
2023/04/08 10:46:57;;;;;;;1.75;0.50;;;;;;;;;;4921707;29;20087;-63
2023/04/08 10:49:32;;;;;;;4.60;0.68;;;;;;;;;;4922293;29;20039;-63
2023/04/08 10:51:58;;;;;;;1.77;0.50;;;;;;;;;;4920212;29;20138;-64
2023/04/08 10:54:26;;;;;;;1.50;0.50;;;;;;;;;;4921703;29;20677;-63
2023/04/08 10:56:53;;;;;;;3.90;0.60;;;;;;;;;;4919725;29;20142;-62
2023/04/08 10:59:31;;;;;;;2.20;0.60;;;;;;;;;;4922000;28;20047;-63
2023/04/08 11:01:59;;;;;;;1.70;0.50;;;;;;;;;;4951341;28;21314;-64
2023/04/08 11:04:25;;;;;;;1.38;0.50;;;;;;;;;;4935723;28;20047;-61
2023/04/08 11:06:52;;;;;;;1.88;0.50;;;;;;;;;;4950804;28;20054;-63
2023/04/08 11:09:19;;;;;;;2.55;0.57;;;;;;;;;;4932275;28;20046;-66
2023/04/08 11:11:46;;;;;;;3.10;0.60;;;;;;;;;;4951946;28;20049;-62
2023/04/08 11:14:13;;;;;;;1.55;0.57;;;;;;;;;;4959390;28;20046;-64
2023/04/08 11:16:40;;;;;;;3.72;0.68;;;;;;;;;;4973909;28;20064;-62
2023/04/08 11:19:07;;;;;;;1.75;0.55;;;;;;;;;;4976639;28;20031;-63
2023/04/08 11:21:37;;;;;;;1.77;0.50;;;;;;;;;;4975307;28;20096;-62
2023/04/08 11:24:15;;;;;;;3.97;0.60;;;;;;;;;;4975592;28;20044;-63
2023/04/08 11:26:42;;;;;;;1.88;0.52;;;;;;;;;;4973685;28;20054;-64
2023/04/08 11:29:15;;;;;;;1.83;0.50;;;;;;;;;;4976040;28;20038;-62
2023/04/08 11:31:43;;;;;;;2.30;0.63;;;;;;;;;;4974349;28;20056;-61
2023/04/08 11:34:09;;;;;;;3.40;0.70;;;;;;;;;;4969606;28;20042;-61
2023/04/08 11:36:36;;;;;;;2.53;0.60;;;;;;;;;;4973638;28;20049;-61
2023/04/08 11:39:10;;;;;;;2.80;0.70;;;;;;;;;;4972477;28;20042;-61
2023/04/08 11:41:38;;;;;;;4.28;0.73;;;;;;;;;;4975422;28;20054;-63
2023/04/08 11:44:05;;;;;;;2.50;0.70;;;;;;;;;;4977237;28;20050;-62
2023/04/08 11:46:33;;;;;;;2.13;0.50;;;;;;;;;;4985774;28;20054;-63
2023/04/08 11:49:01;;;;;;;3.10;0.63;;;;;;;;;;4975079;28;20121;-64
2023/04/08 11:51:27;;;;;;;3.13;0.60;;;;;;;;;;4975642;28;20145;-63
2023/04/08 11:53:54;;;;;;;2.47;0.70;;;;;;;;;;4976200;28;20042;-64
2023/04/08 11:56:29;;;;;;;2.72;0.60;;;;;;;;;;4976579;28;20038;-63
2023/04/08 11:58:56;;;;;;;4.97;0.70;;;;;;;;;;4987130;28;20046;-64
2023/04/08 12:01:42;;;;;;;3.10;0.60;;;;;;;;;;4973776;28;20066;-65
2023/04/08 12:04:10;;;;;;;2.35;0.70;;;;;;;;;;4953546;28;20051;-64
2023/04/08 12:06:37;;;;;;;1.77;0.60;;;;;;;;;;4936927;28;20229;-63
2023/04/08 12:09:04;;;;;;;1.75;0.60;;;;;;;;;;4938011;28;20039;-63
2023/04/08 12:11:30;;;;;;;2.58;0.65;;;;;;;;;;4940762;28;20086;-63
2023/04/08 12:13:57;;;;;;;3.70;0.63;;;;;;;;;;4952586;28;20046;-64
2023/04/08 12:16:24;;;;;;;3.90;0.70;;;;;;;;;;4942382;28;20031;-65
2023/04/08 12:18:51;;;;;;;4.43;0.82;;;;;;;;;;4952591;28;20053;-64
2023/04/08 12:21:19;;;;;;;7.07;0.77;;;;;;;;;;4952900;28;20380;-62
2023/04/08 12:23:46;;;;;;;2.50;0.70;;;;;;;;;;4951991;28;20120;-62
2023/04/08 12:26:13;;;;;;;4.20;0.77;;;;;;;;;;4935568;28;20133;-65
2023/04/08 12:28:40;;;;;;;3.05;0.60;;;;;;;;;;4951098;28;20043;-65
2023/04/08 12:31:06;;;;;;;3.50;0.73;;;;;;;;;;4944152;28;20130;-62
2023/04/08 12:33:33;;;;;;;2.75;0.63;;;;;;;;;;4951240;28;20475;-63
2023/04/08 12:36:00;;;;;;;6.30;0.90;;;;;;;;;;4972398;28;21819;-63
2023/04/08 12:38:28;;;;;;;3.00;0.85;;;;;;;;;;4974789;28;20066;-63
2023/04/08 12:40:55;;;;;;;3.85;0.85;;;;;;;;;;4992289;28;20547;-63
2023/04/08 12:43:22;;;;;;;3.63;1.00;;;;;;;;;;4977428;28;20056;-62
2023/04/08 12:45:49;;;;;;;4.93;0.90;;;;;;;;;;4980375;28;20093;-64
2023/04/08 12:48:16;;;;;;;2.50;0.70;;;;;;;;;;4978527;28;20046;-65
2023/04/08 12:50:42;;;;;;;2.55;0.70;;;;;;;;;;4979197;28;20093;-63
2023/04/08 12:53:09;;;;;;;4.50;0.80;;;;;;;;;;4983099;28;20053;-64
2023/04/08 12:55:36;;;;;;;4.43;0.50;;;;;;;;;;4980716;28;20061;-63
2023/04/08 12:58:02;;;;;;;1.58;0.50;;;;;;;;;;4979995;28;20140;-63
2023/04/08 13:00:29;;;;;;;3.38;0.60;;;;;;;;;;4980283;28;20468;-64
2023/04/08 13:02:55;;;;;;;2.60;0.70;;;;;;;;;;4993080;28;20117;-62
2023/04/08 13:05:22;;;;;;;1.70;0.52;;;;;;;;;;4982904;28;20038;-62
2023/04/08 13:07:49;;;;;;;2.03;0.60;;;;;;;;;;4986391;28;20125;-64
2023/04/08 13:10:35;;;;;;;2.63;0.50;;;;;;;;;;4976503;28;20081;-62
2023/04/08 13:13:02;;;;;;;3.95;0.50;;;;;;;;;;4959232;28;20051;-65
2023/04/08 13:15:28;;;;;;;5.28;0.57;;;;;;;;;;4959611;28;20120;-63
2023/04/08 13:17:55;;;;;;;1.92;0.60;;;;;;;;;;4959383;28;20148;-64
2023/04/08 13:20:24;;;;;;;2.10;0.60;;;;;;;;;;4958770;28;20062;-65
2023/04/08 13:22:51;;;;;;;1.92;0.70;;;;;;;;;;4959795;28;20063;-64
2023/04/08 13:25:18;;;;;;;4.50;0.55;;;;;;;;;;4959315;28;20094;-64
2023/04/08 13:27:45;;;;;;;2.05;0.60;;;;;;;;;;4954746;28;20050;-62
2023/04/08 13:30:12;;;;;;;7.75;0.70;;;;;;;;;;4958929;28;20074;-62
2023/04/08 13:32:38;;;;;;;3.03;0.65;;;;;;;;;;4942084;28;20035;-63
2023/04/08 13:35:05;;;;;;;4.47;0.88;;;;;;;;;;4959828;28;20039;-62
2023/04/08 13:37:32;;;;;;;3.75;0.70;;;;;;;;;;4960698;28;20035;-62
2023/04/08 13:39:58;;;;;;;3.50;0.80;;;;;;;;;;4961618;28;20284;-63
2023/04/08 13:42:26;;;;;;;2.72;0.68;;;;;;;;;;4958776;28;20043;-62
2023/04/08 13:44:53;;;;;;;2.45;0.60;;;;;;;;;;4988599;28;20074;-62
2023/04/08 13:47:20;;;;;;;2.80;0.55;;;;;;;;;;4979309;28;20125;-63
2023/04/08 13:49:46;;;;;;;3.40;0.70;;;;;;;;;;4982630;28;20113;-62
2023/04/08 13:52:13;;;;;;;8.88;0.80;;;;;;;;;;4979356;28;20081;-63
2023/04/08 13:54:40;;;;;;;3.13;0.60;;;;;;;;;;4979952;28;20046;-66
2023/04/08 13:57:06;;;;;;;3.95;0.80;;;;;;;;;;4980941;28;20177;-62
2023/04/08 13:59:33;;;;;;;2.65;0.60;;;;;;;;;;4979761;28;20038;-62
2023/04/08 14:02:00;;;;;;;4.45;0.90;;;;;;;;;;4981694;28;20034;-63
2023/04/08 14:04:27;;;;;;;2.42;0.60;;;;;;;;;;4980778;28;20069;-65
2023/04/08 14:06:56;;;;;;;2.95;0.60;;;;;;;;;;4981571;28;20042;-62
2023/04/08 14:09:23;;;;;;;3.03;0.65;;;;;;;;;;4980939;28;20043;-62
2023/04/08 14:11:50;;;;;;;5.65;0.80;;;;;;;;;;4978655;28;20039;-62
2023/04/08 14:14:16;;;;;;;3.05;0.52;;;;;;;;;;4982048;28;20066;-64
2023/04/08 14:16:43;;;;;;;3.50;0.70;;;;;;;;;;4980106;28;20030;-61
2023/04/08 14:19:10;;;;;;;3.65;0.70;;;;;;;;;;4985944;28;20065;-62
2023/04/08 14:21:37;;;;;;;2.90;0.60;;;;;;;;;;4982371;28;20042;-63
2023/04/08 14:24:04;;;;;;;2.13;0.63;;;;;;;;;;4981702;28;20122;-62
2023/04/08 14:26:34;;;;;;;4.03;0.77;;;;;;;;;;4980254;28;20046;-63
2023/04/08 14:29:02;;;;;;;2.80;0.65;;;;;;;;;;4991554;28;20483;-64
2023/04/08 14:31:29;;;;;;;6.53;1.05;;;;;;;;;;4979964;28;20518;-60
2023/04/08 14:33:55;;;;;;;2.95;0.82;;;;;;;;;;4979929;28;20041;-63
2023/04/08 14:36:23;;;;;;;4.18;0.77;;;;;;;;;;4973401;28;20048;-64
2023/04/08 14:38:50;;;;;;;2.17;0.50;;;;;;;;;;4988849;28;20097;-62
2023/04/08 14:41:16;;;;;;;3.53;0.60;;;;;;;;;;4977987;28;20125;-63
2023/04/08 14:43:43;;;;;;;2.75;0.70;;;;;;;;;;4981840;28;20082;-63
2023/04/08 14:46:10;;;;;;;3.45;0.75;;;;;;;;;;4980750;28;20057;-62
2023/04/08 14:48:36;;;;;;;3.90;0.90;;;;;;;;;;4977785;28;20128;-61